»·PEaware :: N7474B CAD4-KGEG

N7474B :: CAD4-KGEG

FLIGHT INFORMATION

Flight Status: Arrived
Operator: Privately registered:
United States
More flights under this callsign
Pilot: Wayne R. (17783)
Aircraft: CESSNA 172 SKYHAWK
(C172)
More flights by this aircraft type
Origin: CAD4 Trail
Canada
Destination: KGEG Spokane Intl
United States
More flights between these airports :: More routes between these airports
Route:
File this flight plan on PilotEdge
Remarks:
Altitude:
(Current/Filed)
7,500ft
Speed:
(Current/Filed)
110kts
Departed: 03-Dec-19 07:41 PM
Arrived: 03-Dec-19 08:50 PM
Distance/Time
Traveled:
87nm/1:09
Distance/Time
To Go:
Arrived

Flight Plot

Page will automatically refresh every two minutes.

Flight plan parsing failed; only flown route is shown


Map Options




Map Legend


Flown Route
Filed Route
Departure Airport
Arrival Airport
Navaid (VOR, NDB)
Fix

Horizontal Profiles

Position Reports

Time Latitude Longitude Heading Altitude Ground
Speed
03-Dec-19 19:34 49.056041 -117.608067 92 1429ft 0kts
03-Dec-19 19:35 49.056041 -117.608067 92 1429ft 0kts
03-Dec-19 19:36 49.056041 -117.608067 92 1429ft 0kts
03-Dec-19 19:37 49.056041 -117.608067 92 1429ft 0kts
03-Dec-19 19:38 49.055898 -117.608059 25 1429ft 9kts
03-Dec-19 19:39 49.058309 -117.609446 358 1429ft 23kts
03-Dec-19 19:40 49.053718 -117.609289 179 1548ft 73kts
03-Dec-19 19:41 49.033264 -117.605423 159 2412ft 76kts
03-Dec-19 19:42 49.012679 -117.601335 208 3226ft 79kts
03-Dec-19 19:43 49.011652 -117.627744 215 3814ft 91kts
03-Dec-19 19:44 48.992266 -117.652297 218 4477ft 91kts
03-Dec-19 19:45 48.972270 -117.677579 224 5024ft 96kts
03-Dec-19 19:46 48.954769 -117.707869 239 5566ft 95kts
03-Dec-19 19:47 48.939306 -117.740979 235 6043ft 98kts
03-Dec-19 19:48 48.922518 -117.773973 224 6470ft 99kts
03-Dec-19 19:49 48.898203 -117.775787 141 6934ft 94kts
03-Dec-19 19:50 48.877137 -117.750589 150 7340ft 98kts
03-Dec-19 19:52 48.855528 -117.725768 126 7731ft 97kts
03-Dec-19 19:53 48.841015 -117.690744 111 8102ft 100kts
03-Dec-19 19:54 48.836861 -117.650030 84 8478ft 99kts
03-Dec-19 19:55 48.830001 -117.609321 114 8812ft 100kts
03-Dec-19 19:56 48.813812 -117.574227 131 9085ft 104kts
03-Dec-19 19:57 48.791658 -117.545423 150 9262ft 106kts
03-Dec-19 19:58 48.771140 -117.513547 130 9410ft 107kts
03-Dec-19 19:59 48.755038 -117.476086 97 9528ft 109kts
03-Dec-19 20:00 48.756342 -117.430365 107 9577ft 111kts
03-Dec-19 20:01 48.743375 -117.393043 130 9524ft 116kts
03-Dec-19 20:02 48.718784 -117.363222 147 9556ft 113kts
03-Dec-19 20:03 48.690397 -117.342545 147 9557ft 113kts
03-Dec-19 20:04 48.660654 -117.325857 170 9499ft 115kts
03-Dec-19 20:05 48.628664 -117.318949 176 9421ft 116kts
03-Dec-19 20:06 48.597372 -117.309129 155 9358ft 115kts
03-Dec-19 20:07 48.569543 -117.284926 151 9303ft 116kts
03-Dec-19 20:08 48.540514 -117.263657 156 9291ft 116kts
03-Dec-19 20:08 48.517973 -117.241762 144 9287ft 115kts
03-Dec-19 20:10 48.488895 -117.206037 138 9278ft 115kts
03-Dec-19 20:11 48.464430 -117.174629 143 9271ft 115kts
03-Dec-19 20:11 48.442257 -117.151774 146 9267ft 115kts
03-Dec-19 20:12 48.417023 -117.121937 129 9221ft 117kts
03-Dec-19 20:14 48.393873 -117.079877 131 9397ft 111kts
03-Dec-19 20:14 48.376502 -117.050826 136 9470ft 112kts
03-Dec-19 20:16 48.345230 -117.022282 152 9539ft 113kts
03-Dec-19 20:16 48.321346 -117.004641 155 9456ft 122kts
03-Dec-19 20:17 48.291196 -116.985197 159 9420ft 117kts
03-Dec-19 20:18 48.260939 -116.967491 161 9385ft 116kts
03-Dec-19 20:19 48.230220 -116.952413 163 9357ft 116kts
03-Dec-19 20:20 48.199583 -116.937524 157 9074ft 116kts
03-Dec-19 20:21 48.170546 -116.916970 160 8825ft 114kts
03-Dec-19 20:22 48.140508 -116.902347 163 8637ft 113kts
03-Dec-19 20:23 48.109923 -116.890763 169 8397ft 113kts
03-Dec-19 20:24 48.078748 -116.884664 168 8161ft 113kts
03-Dec-19 20:25 48.055331 -116.855574 139 7991ft 107kts
03-Dec-19 20:26 48.026592 -116.840365 169 7717ft 113kts
03-Dec-19 20:27 47.996159 -116.829623 167 7365ft 111kts
03-Dec-19 20:28 47.967589 -116.838315 200 7446ft 106kts
03-Dec-19 20:29 47.939531 -116.853208 210 7543ft 105kts
03-Dec-19 20:30 47.917707 -116.884037 226 7652ft 108kts
03-Dec-19 20:31 47.897109 -116.916986 230 7843ft 109kts
03-Dec-19 20:32 47.878321 -116.951567 233 7870ft 107kts
03-Dec-19 20:33 47.860999 -116.988093 234 7759ft 107kts
03-Dec-19 20:34 47.842298 -117.023206 230 7558ft 108kts
03-Dec-19 20:35 47.822014 -117.056358 227 7321ft 108kts
03-Dec-19 20:36 47.804057 -117.092147 233 7099ft 107kts
03-Dec-19 20:37 47.786681 -117.128254 239 6929ft 107kts
03-Dec-19 20:38 47.770648 -117.165542 235 6677ft 107kts
03-Dec-19 20:39 47.754367 -117.202416 237 6361ft 106kts
03-Dec-19 20:40 47.743636 -117.243758 255 6207ft 109kts
03-Dec-19 20:41 47.738004 -117.287969 266 5981ft 109kts
03-Dec-19 20:42 47.732663 -117.331777 248 5748ft 108kts
03-Dec-19 20:43 47.718979 -117.371676 237 5504ft 107kts
03-Dec-19 20:44 47.701934 -117.408016 232 5042ft 108kts
03-Dec-19 20:45 47.682266 -117.440530 225 4592ft 104kts
03-Dec-19 20:46 47.661763 -117.470477 226 3769ft 98kts
03-Dec-19 20:47 47.644396 -117.498112 224 2750ft 82kts
03-Dec-19 20:48 47.630226 -117.519713 226 2324ft 61kts
03-Dec-19 20:49 47.626318 -117.523133 150 2341ft 8kts
03-Dec-19 20:50 47.622379 -117.528047 223 2356ft 19kts
03-Dec-19 20:51 47.620600 -117.527577 343 2361ft 0kts

Navigation Log

Ident Type
Flight plan parsing failed, navigation log unavailable